Time;durP1;ratioP1;P1;durP2;ratioP2;P2;SDS_P1;SDS_P2;PMS_P1;PMS_P2;Temp;Humidity;BMP_temperature;BMP_pressure;BME280_temperature;BME280_humidity;BME280_pressure;Samples;Min_cycle;Max_cycle;Signal;HPM_P1;HPM_P2
2021/05/16 00:00:21;;;;;;;12.27;9.30;;;22.20;92.60;;;;;;4995594;28;20030;-81
2021/05/16 00:02:47;;;;;;;12.93;10.02;;;22.20;92.50;;;;;;4994959;28;20030;-81
2021/05/16 00:05:14;;;;;;;13.18;10.50;;;22.10;92.50;;;;;;4995292;28;20046;-80
2021/05/16 00:07:41;;;;;;;13.70;10.68;;;22.20;92.50;;;;;;4994832;28;20122;-81
2021/05/16 00:10:08;;;;;;;12.93;10.55;;;22.20;92.50;;;;;;4978642;28;20444;-81
2021/05/16 00:12:35;;;;;;;15.23;11.55;;;22.10;92.50;;;;;;4995217;28;20038;-81
2021/05/16 00:15:01;;;;;;;15.30;12.25;;;22.20;92.50;;;;;;4994740;28;20057;-80
2021/05/16 00:17:26;;;;;;;16.00;11.85;;;22.20;92.50;;;;;;4994869;28;20119;-81
2021/05/16 00:19:52;;;;;;;15.18;12.05;;;22.20;92.50;;;;;;5012507;28;20049;-81
2021/05/16 00:22:19;;;;;;;16.33;12.35;;;22.20;92.50;;;;;;4978402;28;20050;-81
2021/05/16 00:24:44;;;;;;;15.77;12.50;;;22.10;92.40;;;;;;4994489;28;20036;-81
2021/05/16 00:27:10;;;;;;;17.73;13.52;;;22.20;92.40;;;;;;4994653;28;20129;-82
2021/05/16 00:29:36;;;;;;;18.05;13.43;;;22.20;92.40;;;;;;5012426;28;20037;-81
2021/05/16 00:32:03;;;;;;;19.33;13.77;;;22.20;92.40;;;;;;5012366;28;20038;-81
2021/05/16 00:34:29;;;;;;;17.38;13.23;;;22.20;92.60;;;;;;4977935;28;20052;-82
2021/05/16 00:36:55;;;;;;;17.42;14.13;;;22.20;92.30;;;;;;4994791;28;20479;-81
2021/05/16 00:39:20;;;;;;;18.63;14.93;;;22.10;92.30;;;;;;5012249;28;20049;-82
2021/05/16 00:41:46;;;;;;;19.42;14.60;;;22.10;92.30;;;;;;5012279;28;20464;-81
2021/05/16 00:44:13;;;;;;;18.27;14.52;;;22.20;92.30;;;;;;4994735;28;20064;-81
2021/05/16 00:46:39;;;;;;;19.67;14.82;;;22.20;92.30;;;;;;5012120;28;20114;-82
2021/05/16 00:49:05;;;;;;;18.65;15.20;;;22.20;92.30;;;;;;4994737;28;20074;-82
2021/05/16 00:51:30;;;;;;;19.40;14.88;;;22.20;92.30;;;;;;4994473;28;20038;-82
2021/05/16 00:53:58;;;;;;;18.33;15.13;;;22.20;92.20;;;;;;4994584;28;20152;-82
2021/05/16 00:56:23;;;;;;;18.60;14.50;;;22.10;92.20;;;;;;4994689;28;20037;-81
2021/05/16 00:58:49;;;;;;;20.38;16.10;;;22.20;92.20;;;;;;4978181;28;20039;-83
2021/05/16 01:01:17;;;;;;;20.63;15.18;;;22.10;92.20;;;;;;4994660;28;20313;-81
2021/05/16 01:03:42;;;;;;;20.48;16.00;;;22.20;92.20;;;;;;5011982;28;20502;-82
2021/05/16 01:06:08;;;;;;;22.13;16.60;;;22.10;92.10;;;;;;5014806;28;20034;-81
2021/05/16 01:08:34;;;;;;;19.20;15.32;;;22.20;92.20;;;;;;4998222;28;20026;-81
2021/05/16 01:11:00;;;;;;;19.63;15.82;;;22.10;92.10;;;;;;5016342;28;20022;-81
2021/05/16 01:13:26;;;;;;;20.25;16.15;;;22.10;92.10;;;;;;4982534;28;20080;-81
2021/05/16 01:15:52;;;;;;;20.73;16.58;;;22.10;92.10;;;;;;4998481;28;20037;-81
2021/05/16 01:18:18;;;;;;;20.67;15.88;;;22.10;92.10;;;;;;4986185;28;20030;-81
2021/05/16 01:20:46;;;;;;;21.58;16.60;;;22.10;92.10;;;;;;5005629;28;20068;-82
2021/05/16 01:23:25;;;;;;;22.10;16.95;;;22.10;92.00;;;;;;5039363;28;20064;-82
2021/05/16 01:25:51;;;;;;;21.98;17.45;;;22.10;92.00;;;;;;5039156;28;20025;-82
2021/05/16 01:28:18;;;;;;;21.33;17.25;;;22.10;92.00;;;;;;5001254;28;20172;-81
2021/05/16 01:30:45;;;;;;;20.90;16.83;;;22.10;92.00;;;;;;4999473;28;20056;-81
2021/05/16 01:33:12;;;;;;;20.00;15.90;;;22.10;92.00;;;;;;4999857;28;20480;-81
2021/05/16 01:35:37;;;;;;;19.40;16.45;;;22.10;92.00;;;;;;4982932;28;20045;-81
2021/05/16 01:38:04;;;;;;;23.08;17.73;;;22.10;92.00;;;;;;5017334;28;20030;-80
2021/05/16 01:40:30;;;;;;;21.10;16.15;;;22.10;92.00;;;;;;5000203;28;20101;-80
2021/05/16 01:42:57;;;;;;;19.75;16.17;;;22.10;92.00;;;;;;4998185;28;20037;-81
2021/05/16 01:45:26;;;;;;;20.85;16.08;;;22.10;91.90;;;;;;4998195;28;20030;-81
2021/05/16 01:47:53;;;;;;;20.40;16.55;;;22.10;91.90;;;;;;5015841;28;20022;-81
2021/05/16 01:50:21;;;;;;;22.48;17.48;;;22.10;91.90;;;;;;4998742;28;20112;-81
2021/05/16 01:52:48;;;;;;;22.90;17.60;;;22.10;91.90;;;;;;5015219;28;20030;-80
2021/05/16 01:55:16;;;;;;;23.85;17.58;;;22.10;91.90;;;;;;5015264;28;20026;-81
2021/05/16 01:57:43;;;;;;;21.20;16.38;;;22.10;91.90;;;;;;4997615;28;20091;-81
2021/05/16 02:00:11;;;;;;;21.92;17.05;;;22.10;91.90;;;;;;4980925;28;20026;-81
2021/05/16 02:02:39;;;;;;;22.10;16.73;;;22.10;91.90;;;;;;5014243;28;20080;-82
2021/05/16 02:05:08;;;;;;;21.25;16.85;;;22.10;91.80;;;;;;5014818;28;20022;-81
2021/05/16 02:07:37;;;;;;;21.70;16.55;;;22.10;91.80;;;;;;4981109;28;20034;-81
2021/05/16 02:10:06;;;;;;;22.25;17.15;;;22.10;91.80;;;;;;4997903;28;20022;-81
2021/05/16 02:12:32;;;;;;;21.92;16.70;;;22.10;91.80;;;;;;4997670;28;20068;-82
2021/05/16 02:14:57;;;;;;;20.20;16.70;;;22.10;91.80;;;;;;4980985;28;20453;-82
2021/05/16 02:17:23;;;;;;;21.60;16.60;;;22.10;91.80;;;;;;4964798;28;20042;-82
2021/05/16 02:19:49;;;;;;;20.35;16.35;;;22.10;91.80;;;;;;5014899;28;20035;-81
2021/05/16 02:22:15;;;;;;;20.45;15.65;;;22.10;91.80;;;;;;4995097;28;20112;-82
2021/05/16 02:24:44;;;;;;;21.33;16.95;;;22.10;91.70;;;;;;4997201;28;20038;-82
2021/05/16 02:27:10;;;;;;;20.85;16.38;;;22.10;91.70;;;;;;4997259;28;20037;-82
2021/05/16 02:29:37;;;;;;;19.52;16.25;;;22.10;91.70;;;;;;5014634;28;20484;-82
2021/05/16 02:32:07;;;;;;;20.42;15.75;;;22.10;91.70;;;;;;5014796;28;20025;-82
2021/05/16 02:34:33;;;;;;;20.58;15.68;;;22.10;91.70;;;;;;4997268;28;20026;-81
2021/05/16 02:36:58;;;;;;;23.70;17.10;;;22.10;91.60;;;;;;5014183;28;20028;-82
2021/05/16 02:39:24;;;;;;;23.05;17.17;;;22.10;91.60;;;;;;4980736;28;20034;-81
2021/05/16 02:41:50;;;;;;;20.00;16.33;;;22.10;91.60;;;;;;4980512;28;20034;-82
2021/05/16 02:44:18;;;;;;;21.70;16.90;;;22.10;91.60;;;;;;5014605;28;20033;-82
2021/05/16 02:46:44;;;;;;;21.63;16.63;;;22.10;91.60;;;;;;5014350;28;20045;-82
2021/05/16 02:49:09;;;;;;;22.55;17.30;;;22.10;91.60;;;;;;4996839;28;20030;-82
2021/05/16 02:51:35;;;;;;;20.13;16.17;;;22.10;91.60;;;;;;4980576;28;20121;-82
2021/05/16 02:54:00;;;;;;;18.90;16.23;;;22.10;91.60;;;;;;5014015;28;20543;-82
2021/05/16 02:56:26;;;;;;;19.80;15.82;;;22.10;91.50;;;;;;4996749;28;20510;-82
2021/05/16 02:58:52;;;;;;;21.45;16.08;;;22.10;91.50;;;;;;4996273;28;20403;-82
2021/05/16 03:01:18;;;;;;;22.85;16.42;;;22.10;91.50;;;;;;4964492;28;20045;-82
2021/05/16 03:03:43;;;;;;;20.38;16.27;;;22.10;91.50;;;;;;5013925;28;20034;-82
2021/05/16 03:06:09;;;;;;;20.23;15.85;;;22.10;91.50;;;;;;4996701;28;20077;-82
2021/05/16 03:08:35;;;;;;;20.73;16.58;;;22.10;91.50;;;;;;4996422;28;20076;-82
2021/05/16 03:11:00;;;;;;;20.63;16.17;;;22.10;91.50;;;;;;4980093;28;20061;-82
2021/05/16 03:13:26;;;;;;;19.80;15.45;;;22.10;91.50;;;;;;4996153;28;20506;-82
2021/05/16 03:15:52;;;;;;;19.30;15.93;;;22.10;91.50;;;;;;5013810;28;20081;-82
2021/05/16 03:18:18;;;;;;;20.77;16.10;;;22.10;91.40;;;;;;5013931;28;20081;-82
2021/05/16 03:20:43;;;;;;;19.98;15.88;;;22.10;91.40;;;;;;4995838;28;20030;-83
2021/05/16 03:23:09;;;;;;;20.60;15.88;;;22.10;91.40;;;;;;4976510;28;20107;-82
2021/05/16 03:25:36;;;;;;;19.90;14.98;;;22.10;91.40;;;;;;4993001;28;20026;-82
2021/05/16 03:28:06;;;;;;;19.52;15.48;;;22.10;91.40;;;;;;4960144;28;20507;-82
2021/05/16 03:30:32;;;;;;;19.00;15.38;;;22.10;91.40;;;;;;4992843;28;20141;-82
2021/05/16 03:32:58;;;;;;;19.27;15.13;;;22.10;91.40;;;;;;4992506;28;20065;-82
2021/05/16 03:35:23;;;;;;;19.73;15.18;;;22.10;91.40;;;;;;4994704;28;20050;-82
2021/05/16 03:37:50;;;;;;;18.17;14.20;;;22.10;91.40;;;;;;4976605;28;20034;-82
2021/05/16 03:40:16;;;;;;;20.85;15.32;;;22.10;91.30;;;;;;4994110;28;20027;-82
2021/05/16 03:42:41;;;;;;;19.38;15.18;;;22.10;91.30;;;;;;4994711;28;20033;-82
2021/05/16 03:45:10;;;;;;;19.42;14.98;;;22.10;91.30;;;;;;4994490;28;20396;-82
2021/05/16 03:47:38;;;;;;;19.80;15.35;;;22.10;91.30;;;;;;4993257;28;20431;-81
2021/05/16 03:50:08;;;;;;;17.92;14.13;;;22.10;91.30;;;;;;4993013;28;20475;-82
2021/05/16 03:52:34;;;;;;;19.75;14.75;;;22.10;91.30;;;;;;5007894;28;20071;-82
2021/05/16 03:55:00;;;;;;;20.02;15.00;;;22.10;91.30;;;;;;5016794;28;20077;-83
2021/05/16 03:57:26;;;;;;;19.23;15.48;;;22.10;91.30;;;;;;5017171;28;20027;-82
2021/05/16 03:59:51;;;;;;;18.70;14.45;;;22.10;91.30;;;;;;5014256;28;20057;-82
2021/05/16 04:02:17;;;;;;;18.92;14.38;;;22.00;91.30;;;;;;4994585;28;20365;-82
2021/05/16 04:04:43;;;;;;;18.17;13.73;;;22.10;91.30;;;;;;4994553;28;20399;-82
2021/05/16 04:07:09;;;;;;;18.63;14.02;;;22.10;91.30;;;;;;4977768;28;20480;-82
2021/05/16 04:09:34;;;;;;;17.17;13.60;;;22.00;91.20;;;;;;4993378;28;20492;-82
2021/05/16 04:12:00;;;;;;;16.63;13.48;;;22.00;91.30;;;;;;4975831;28;20208;-82
2021/05/16 04:14:27;;;;;;;16.20;12.80;;;22.10;91.30;;;;;;4994049;28;20469;-82
2021/05/16 04:16:53;;;;;;;16.38;13.40;;;22.00;91.20;;;;;;4992351;28;20036;-83
2021/05/16 04:19:19;;;;;;;17.88;13.75;;;22.10;91.30;;;;;;4993535;28;20022;-82
2021/05/16 04:21:45;;;;;;;18.70;14.25;;;22.10;91.20;;;;;;4992667;28;20483;-82
2021/05/16 04:24:11;;;;;;;17.13;13.65;;;22.10;91.20;;;;;;4992031;28;20105;-82
2021/05/16 04:26:36;;;;;;;15.65;12.93;;;22.10;91.20;;;;;;4992033;28;20026;-82
2021/05/16 04:29:06;;;;;;;18.63;13.25;;;22.10;91.20;;;;;;4976381;28;20349;-82
2021/05/16 04:31:32;;;;;;;16.85;12.80;;;22.10;91.20;;;;;;4993525;28;20023;-82
2021/05/16 04:33:58;;;;;;;17.08;13.32;;;22.00;91.20;;;;;;4991971;28;20045;-82
2021/05/16 04:36:24;;;;;;;17.75;12.82;;;22.10;91.20;;;;;;4993343;28;20026;-82
2021/05/16 04:38:52;;;;;;;15.30;12.10;;;22.00;91.20;;;;;;4992070;28;20031;-82
2021/05/16 04:41:18;;;;;;;15.57;12.25;;;22.10;91.20;;;;;;4996297;28;20026;-82
2021/05/16 04:43:43;;;;;;;16.23;12.60;;;22.00;91.20;;;;;;4996007;28;20038;-82
2021/05/16 04:46:09;;;;;;;16.08;12.02;;;22.10;91.20;;;;;;4979922;28;20026;-82
2021/05/16 04:48:35;;;;;;;16.17;11.80;;;22.00;91.20;;;;;;4996074;28;20396;-82
2021/05/16 04:51:01;;;;;;;14.63;11.48;;;22.10;91.20;;;;;;4979494;28;20112;-82
2021/05/16 04:53:32;;;;;;;15.45;12.05;;;22.10;91.20;;;;;;4995880;28;20039;-83
2021/05/16 04:55:58;;;;;;;14.30;11.27;;;22.10;91.20;;;;;;4995679;28;20499;-82
2021/05/16 04:58:24;;;;;;;15.57;11.55;;;22.10;91.20;;;;;;4996131;28;20030;-82
2021/05/16 05:00:50;;;;;;;14.15;11.02;;;22.00;91.20;;;;;;4995637;28;20027;-82
2021/05/16 05:03:16;;;;;;;13.95;10.88;;;22.00;91.20;;;;;;4979776;28;20038;-81
2021/05/16 05:05:43;;;;;;;14.68;11.23;;;22.00;91.20;;;;;;4998545;28;20034;-82
2021/05/16 05:08:08;;;;;;;15.48;11.23;;;22.00;91.20;;;;;;4997007;28;20081;-82
2021/05/16 05:10:34;;;;;;;14.95;11.18;;;22.00;91.20;;;;;;4979971;28;20030;-82
2021/05/16 05:13:00;;;;;;;14.02;10.65;;;22.10;91.20;;;;;;4995459;28;20035;-82
2021/05/16 05:15:25;;;;;;;14.88;11.27;;;22.00;91.20;;;;;;4979632;28;20133;-82
2021/05/16 05:17:51;;;;;;;13.30;10.68;;;22.00;91.20;;;;;;4979488;28;20381;-82
2021/05/16 05:20:16;;;;;;;14.05;11.25;;;22.00;91.10;;;;;;4995283;28;20142;-82
2021/05/16 05:22:42;;;;;;;14.32;11.35;;;22.00;91.20;;;;;;4995189;28;20377;-82
2021/05/16 05:25:08;;;;;;;13.00;10.45;;;22.00;91.10;;;;;;4994966;28;20034;-82
2021/05/16 05:27:34;;;;;;;14.57;10.55;;;22.00;91.10;;;;;;4996494;28;20026;-82
2021/05/16 05:30:00;;;;;;;15.13;11.05;;;22.00;91.10;;;;;;4979385;28;20041;-82
2021/05/16 05:32:25;;;;;;;11.15;9.55;;;22.00;91.10;;;;;;4995204;28;20049;-82
2021/05/16 05:34:51;;;;;;;14.18;10.48;;;22.00;91.10;;;;;;4963186;28;20034;-82
2021/05/16 05:37:17;;;;;;;14.23;10.30;;;22.00;91.10;;;;;;4996392;28;20389;-82
2021/05/16 05:39:42;;;;;;;12.85;9.98;;;22.00;91.10;;;;;;4979037;28;20388;-81
2021/05/16 05:42:08;;;;;;;12.65;9.63;;;22.00;91.10;;;;;;4996253;28;20030;-80
2021/05/16 05:44:35;;;;;;;14.82;9.75;;;22.00;91.20;;;;;;4979296;28;20066;-81
2021/05/16 05:47:00;;;;;;;13.63;10.32;;;22.00;91.10;;;;;;4978949;28;20124;-81
2021/05/16 05:49:26;;;;;;;11.43;9.43;;;22.00;91.10;;;;;;4996401;28;20050;-81
2021/05/16 05:51:52;;;;;;;12.07;9.50;;;22.00;91.10;;;;;;4994457;28;20511;-81
2021/05/16 05:54:17;;;;;;;13.02;9.43;;;22.00;91.10;;;;;;4996047;28;20038;-80
2021/05/16 05:56:43;;;;;;;11.35;9.00;;;22.00;91.10;;;;;;4996026;28;20045;-81
2021/05/16 05:59:10;;;;;;;12.40;9.48;;;22.00;91.10;;;;;;4978315;28;20392;-81
2021/05/16 06:01:36;;;;;;;11.40;9.43;;;22.00;91.10;;;;;;4994425;28;20030;-81
2021/05/16 06:04:02;;;;;;;11.85;9.02;;;22.00;91.10;;;;;;4995571;28;20388;-81
2021/05/16 06:06:27;;;;;;;12.30;9.18;;;22.00;91.10;;;;;;4994445;28;20042;-81
2021/05/16 06:08:53;;;;;;;11.30;8.60;;;22.00;91.10;;;;;;4994592;28;20041;-80
2021/05/16 06:11:18;;;;;;;10.45;8.45;;;22.00;91.10;;;;;;4978444;28;20512;-80
2021/05/16 06:13:44;;;;;;;9.93;8.23;;;22.10;91.10;;;;;;4978372;28;20049;-81
2021/05/16 06:16:10;;;;;;;10.88;8.65;;;22.10;91.30;;;;;;4995048;28;20419;-81
2021/05/16 06:18:36;;;;;;;10.63;8.18;;;22.00;91.10;;;;;;4995007;28;20037;-80
2021/05/16 06:21:02;;;;;;;11.63;8.38;;;22.00;91.10;;;;;;4994630;28;20061;-83
2021/05/16 06:23:32;;;;;;;10.35;8.23;;;22.00;91.10;;;;;;4962425;28;20461;-81
2021/05/16 06:25:58;;;;;;;10.50;8.05;;;22.00;91.10;;;;;;5006892;28;20019;-80
2021/05/16 06:28:24;;;;;;;10.55;8.05;;;22.00;91.10;;;;;;5018767;28;20034;-82
2021/05/16 06:30:49;;;;;;;9.82;7.60;;;22.00;91.10;;;;;;5019190;28;20018;-81
2021/05/16 06:33:15;;;;;;;9.43;7.40;;;22.00;91.10;;;;;;5012683;28;20057;-82
2021/05/16 06:35:40;;;;;;;10.27;7.85;;;22.00;91.00;;;;;;4979511;28;20463;-81
2021/05/16 06:38:06;;;;;;;9.90;8.15;;;22.00;91.00;;;;;;4996394;28;20030;-81
2021/05/16 06:40:33;;;;;;;10.60;8.15;;;22.10;91.00;;;;;;4979772;28;20031;-80
2021/05/16 06:43:00;;;;;;;8.73;7.00;;;22.00;91.00;;;;;;4994195;28;20034;-81
2021/05/16 06:45:26;;;;;;;9.45;8.07;;;22.10;91.00;;;;;;4995211;28;20022;-81
2021/05/16 06:47:52;;;;;;;8.27;6.78;;;22.00;91.00;;;;;;4994175;28;20146;-81
2021/05/16 06:50:19;;;;;;;8.98;7.20;;;22.10;91.00;;;;;;4993794;28;20429;-81
2021/05/16 06:52:45;;;;;;;8.52;6.95;;;22.10;91.00;;;;;;4977922;28;20034;-82
2021/05/16 06:55:11;;;;;;;8.20;6.75;;;22.00;91.00;;;;;;4995008;28;20384;-82
2021/05/16 06:57:39;;;;;;;8.55;6.72;;;22.00;91.00;;;;;;4994824;28;20030;-81
2021/05/16 07:00:05;;;;;;;8.77;6.38;;;22.10;91.00;;;;;;4977895;28;20052;-81
2021/05/16 07:02:31;;;;;;;7.95;6.63;;;22.10;91.00;;;;;;4992903;28;20030;-81
2021/05/16 07:04:57;;;;;;;8.13;6.28;;;22.10;91.00;;;;;;4995015;28;20411;-82
2021/05/16 07:07:23;;;;;;;7.50;6.10;;;22.10;91.00;;;;;;4976964;28;20037;-81
2021/05/16 07:09:49;;;;;;;8.73;6.28;;;22.10;91.00;;;;;;4993434;28;20034;-82
2021/05/16 07:12:15;;;;;;;9.18;6.65;;;22.10;91.00;;;;;;4994254;28;20039;-81
2021/05/16 07:14:40;;;;;;;7.43;6.50;;;22.10;91.30;;;;;;4994530;28;20027;-83
2021/05/16 07:17:06;;;;;;;9.43;6.32;;;22.10;91.00;;;;;;4994508;28;20105;-81
2021/05/16 07:19:32;;;;;;;8.68;6.47;;;22.10;91.00;;;;;;4976678;28;20488;-81
2021/05/16 07:21:57;;;;;;;8.43;6.13;;;22.10;91.00;;;;;;4976814;28;20037;-82
2021/05/16 07:24:23;;;;;;;9.80;6.78;;;22.10;91.00;;;;;;4992617;28;20101;-82
2021/05/16 07:26:49;;;;;;;7.53;5.68;;;22.10;91.00;;;;;;4976904;28;20384;-80
2021/05/16 07:29:14;;;;;;;8.00;6.03;;;22.10;91.00;;;;;;4976554;28;20499;-80
2021/05/16 07:31:40;;;;;;;8.88;6.20;;;22.10;91.10;;;;;;4993995;28;20546;-80
2021/05/16 07:34:05;;;;;;;7.45;5.82;;;22.10;91.10;;;;;;4993854;28;20113;-82
2021/05/16 07:36:31;;;;;;;7.80;6.43;;;22.10;91.10;;;;;;4976667;28;20027;-82
2021/05/16 07:38:57;;;;;;;9.13;6.07;;;22.10;91.10;;;;;;4975453;28;20034;-80
2021/05/16 07:41:23;;;;;;;7.63;6.22;;;22.10;91.10;;;;;;4992147;28;20030;-81
2021/05/16 07:43:48;;;;;;;9.90;5.68;;;22.10;91.10;;;;;;4992633;28;20081;-80
2021/05/16 07:46:14;;;;;;;7.97;5.18;;;22.10;91.10;;;;;;4976039;28;20042;-81
2021/05/16 07:48:40;;;;;;;7.50;5.65;;;22.10;91.10;;;;;;4990514;28;20043;-81
2021/05/16 07:51:06;;;;;;;8.18;6.03;;;22.10;91.10;;;;;;4993709;28;20038;-80
2021/05/16 07:53:32;;;;;;;8.73;5.80;;;22.10;91.10;;;;;;4992128;28;20040;-81
2021/05/16 07:55:58;;;;;;;7.10;5.35;;;22.10;91.10;;;;;;4976133;28;20026;-81
2021/05/16 07:58:24;;;;;;;7.35;5.63;;;22.10;91.10;;;;;;4975815;28;20436;-81
2021/05/16 08:00:49;;;;;;;7.75;5.65;;;22.10;91.10;;;;;;4992318;28;20097;-81
2021/05/16 08:03:15;;;;;;;8.13;5.70;;;22.10;91.10;;;;;;4975426;28;20066;-82
2021/05/16 08:05:40;;;;;;;7.25;5.90;;;22.10;91.10;;;;;;4990048;28;20048;-82
2021/05/16 08:08:06;;;;;;;7.55;5.70;;;22.10;91.10;;;;;;4988871;28;20112;-81
2021/05/16 08:10:32;;;;;;;6.93;5.22;;;22.10;91.10;;;;;;4988227;28;20039;-82
2021/05/16 08:12:57;;;;;;;8.45;6.53;;;22.10;91.10;;;;;;4990544;28;20414;-81
2021/05/16 08:15:25;;;;;;;9.48;6.32;;;22.10;91.10;;;;;;4987450;28;20092;-82
2021/05/16 08:17:51;;;;;;;8.40;5.93;;;22.10;91.10;;;;;;4990236;28;20488;-82
2021/05/16 08:20:17;;;;;;;9.20;6.25;;;22.10;91.10;;;;;;4984642;28;20164;-81
2021/05/16 08:22:43;;;;;;;9.07;6.65;;;22.10;91.10;;;;;;4991063;28;20847;-81
2021/05/16 08:25:11;;;;;;;10.15;7.25;;;22.10;91.10;;;;;;5006662;28;20034;-81
2021/05/16 08:27:39;;;;;;;9.38;7.45;;;22.10;91.10;;;;;;5006274;28;20026;-80
2021/05/16 08:30:06;;;;;;;8.98;6.20;;;22.10;91.00;;;;;;4990607;28;20479;-81
2021/05/16 08:32:32;;;;;;;9.57;6.63;;;22.10;91.00;;;;;;5005474;28;20172;-81
2021/05/16 08:34:58;;;;;;;9.32;7.20;;;22.10;91.00;;;;;;5008214;28;20512;-81
2021/05/16 08:37:24;;;;;;;11.85;7.60;;;22.10;91.00;;;;;;5005188;28;20030;-81
2021/05/16 08:39:49;;;;;;;10.55;7.63;;;22.10;91.00;;;;;;4988099;28;20381;-81
2021/05/16 08:42:17;;;;;;;13.23;9.13;;;22.10;91.00;;;;;;5004807;28;20041;-81
2021/05/16 08:44:44;;;;;;;14.80;9.57;;;22.10;91.10;;;;;;4986730;28;20040;-81
2021/05/16 08:47:09;;;;;;;11.63;9.32;;;22.10;91.10;;;;;;4986411;28;20117;-81
2021/05/16 08:49:35;;;;;;;14.45;11.10;;;22.10;91.10;;;;;;4991274;28;20494;-82
2021/05/16 08:52:01;;;;;;;14.43;10.07;;;22.10;91.10;;;;;;4988526;28;20070;-82
2021/05/16 08:54:27;;;;;;;15.00;11.27;;;22.10;91.10;;;;;;5005835;28;20045;-85
2021/05/16 08:56:54;;;;;;;16.00;10.93;;;22.10;91.00;;;;;;4988800;28;20443;-80
2021/05/16 08:59:23;;;;;;;13.20;9.63;;;22.10;91.00;;;;;;4971562;28;20085;-84
2021/05/16 09:02:00;;;;;;;13.40;9.70;;;22.10;90.90;;;;;;5026900;28;20137;-82
2021/05/16 09:06:59;;;;;;;14.85;10.75;;;22.10;90.90;;;;;;5029233;28;20022;-82
2021/05/16 09:09:25;;;;;;;13.73;11.35;;;22.10;90.90;;;;;;4993210;28;20025;-81
2021/05/16 09:11:59;;;;;;;15.27;11.50;;;22.10;90.90;;;;;;4990171;28;20084;-81
2021/05/16 09:14:43;;;;;;;16.40;12.20;;;22.10;90.90;;;;;;5003123;28;20069;-81
2021/05/16 09:17:36;;;;;;;17.00;12.88;;;22.20;90.90;;;;;;4986900;28;20049;-81
2021/05/16 09:20:10;;;;;;;18.25;12.90;;;22.10;90.90;;;;;;5004866;28;20120;-81
2021/05/16 09:22:47;;;;;;;17.67;13.33;;;22.10;90.90;;;;;;4985747;28;20045;-81
2021/05/16 09:25:15;;;;;;;17.92;13.05;;;22.20;90.90;;;;;;5004234;28;20272;-81
2021/05/16 09:27:43;;;;;;;18.48;14.40;;;22.20;90.90;;;;;;4987891;28;20036;-82
2021/05/16 09:30:15;;;;;;;18.40;13.50;;;22.10;90.90;;;;;;5016994;28;20026;-82
2021/05/16 09:32:52;;;;;;;18.10;13.35;;;22.20;90.90;;;;;;5009244;28;20034;-82
2021/05/16 09:35:39;;;;;;;17.92;13.40;;;22.20;90.90;;;;;;4990197;28;20034;-82
2021/05/16 09:38:13;;;;;;;18.13;14.10;;;22.20;91.10;;;;;;4982587;28;20046;-81
2021/05/16 09:40:45;;;;;;;18.40;14.23;;;22.20;90.90;;;;;;4988192;28;20038;-82
2021/05/16 09:43:22;;;;;;;16.88;13.25;;;22.20;90.90;;;;;;4991410;28;20026;-83
2021/05/16 09:45:54;;;;;;;17.25;13.80;;;22.20;90.90;;;;;;4988596;28;20148;-81
2021/05/16 09:48:29;;;;;;;18.83;13.75;;;22.20;90.90;;;;;;4990605;28;20029;-81
2021/05/16 09:51:21;;;;;;;19.65;13.88;;;22.20;90.90;;;;;;4987885;28;20121;-81
2021/05/16 09:54:02;;;;;;;16.27;12.73;;;22.20;90.90;;;;;;5018034;28;20116;-81
2021/05/16 09:56:38;;;;;;;17.33;12.57;;;22.20;90.90;;;;;;5017825;28;20033;-80
2021/05/16 09:59:09;;;;;;;17.75;13.05;;;22.20;90.90;;;;;;5034907;28;20033;-81
2021/05/16 10:01:36;;;;;;;16.52;11.93;;;22.20;90.90;;;;;;5035036;28;20418;-81
2021/05/16 10:04:04;;;;;;;16.50;11.60;;;22.20;90.90;;;;;;5016833;28;20483;-80
2021/05/16 10:06:30;;;;;;;12.80;10.18;;;22.20;90.90;;;;;;5034468;28;20022;-81
2021/05/16 10:08:57;;;;;;;14.48;11.13;;;22.20;90.90;;;;;;5017047;28;20041;-81
2021/05/16 10:11:28;;;;;;;11.85;9.82;;;22.20;90.90;;;;;;5000257;28;20032;-81
2021/05/16 10:14:16;;;;;;;11.85;9.32;;;22.20;90.90;;;;;;5034221;28;20128;-81
2021/05/16 10:16:45;;;;;;;11.43;9.15;;;22.30;90.90;;;;;;5033986;28;20024;-80
2021/05/16 10:19:24;;;;;;;12.90;9.48;;;22.20;90.90;;;;;;4999596;28;20047;-81
2021/05/16 10:22:05;;;;;;;10.88;8.40;;;22.20;90.90;;;;;;5016584;28;20040;-81
2021/05/16 10:24:42;;;;;;;10.90;8.27;;;22.30;91.00;;;;;;5016727;28;20168;-81
2021/05/16 10:27:15;;;;;;;9.82;7.55;;;22.30;91.00;;;;;;5016438;28;20110;-82
2021/05/16 10:29:53;;;;;;;8.90;6.63;;;22.30;91.00;;;;;;5034220;28;20074;-82
2021/05/16 10:32:27;;;;;;;8.25;6.55;;;22.30;91.00;;;;;;5016409;28;20055;-81
2021/05/16 10:34:58;;;;;;;8.82;6.20;;;22.30;91.10;;;;;;5034202;28;20029;-81
2021/05/16 10:37:37;;;;;;;7.85;6.47;;;22.30;91.10;;;;;;5034346;28;20044;-81
2021/05/16 10:40:06;;;;;;;8.00;6.32;;;22.30;91.10;;;;;;5017152;28;20037;-81
2021/05/16 10:42:37;;;;;;;6.70;5.47;;;22.30;91.10;;;;;;5034049;28;20103;-81
2021/05/16 10:45:15;;;;;;;6.45;5.18;;;22.30;91.10;;;;;;5016884;28;20387;-81
2021/05/16 10:47:44;;;;;;;6.10;4.80;;;22.30;91.00;;;;;;5033933;28;20100;-81
2021/05/16 10:50:11;;;;;;;7.80;5.38;;;22.30;91.00;;;;;;5033956;28;20021;-81
2021/05/16 10:52:38;;;;;;;5.85;4.60;;;22.30;91.00;;;;;;5016634;28;20033;-82
2021/05/16 10:55:23;;;;;;;6.00;4.60;;;22.30;91.00;;;;;;5003361;28;20033;-81
2021/05/16 10:57:49;;;;;;;4.72;4.10;;;22.40;91.00;;;;;;5017673;28;20053;-81
2021/05/16 11:00:24;;;;;;;5.43;4.43;;;22.30;91.00;;;;;;5034980;28;20533;-81
2021/05/16 11:02:59;;;;;;;4.82;3.90;;;22.40;91.00;;;;;;5017444;28;20048;-81
2021/05/16 11:05:40;;;;;;;4.70;3.75;;;22.40;91.00;;;;;;5035419;28;20022;-81
2021/05/16 11:08:30;;;;;;;4.97;3.80;;;22.30;91.00;;;;;;5015906;28;20047;-81
2021/05/16 11:10:57;;;;;;;3.83;3.00;;;22.40;91.00;;;;;;5001987;28;20479;-82
2021/05/16 11:13:28;;;;;;;4.80;3.20;;;22.40;91.00;;;;;;4999015;28;20128;-82
2021/05/16 11:16:06;;;;;;;3.78;3.13;;;22.40;91.00;;;;;;5033657;28;20033;-82
2021/05/16 11:18:35;;;;;;;3.65;2.97;;;22.40;91.00;;;;;;5033513;28;20030;-81
2021/05/16 11:21:06;;;;;;;2.88;2.50;;;22.40;91.00;;;;;;5015011;28;20103;-82
2021/05/16 11:23:34;;;;;;;2.92;2.60;;;22.40;91.00;;;;;;5014959;28;20060;-82
2021/05/16 11:26:11;;;;;;;3.63;2.88;;;22.30;91.00;;;;;;5032977;28;20128;-83
2021/05/16 11:28:43;;;;;;;3.13;2.47;;;22.40;91.00;;;;;;5015618;28;20095;-80
2021/05/16 11:31:11;;;;;;;2.75;2.40;;;22.40;91.00;;;;;;5033440;28;20087;-80
2021/05/16 11:33:39;;;;;;;3.30;2.50;;;22.40;91.00;;;;;;5033762;28;20065;-80
2021/05/16 11:36:13;;;;;;;3.58;2.63;;;22.40;91.00;;;;;;4999567;28;20120;-83
2021/05/16 11:38:42;;;;;;;3.20;2.22;;;22.40;91.00;;;;;;5029332;28;20081;-81
2021/05/16 11:41:22;;;;;;;2.20;1.98;;;22.40;91.00;;;;;;5056215;28;20013;-81
2021/05/16 11:43:48;;;;;;;3.20;2.30;;;22.40;91.00;;;;;;5037633;28;20379;-81
2021/05/16 11:46:14;;;;;;;2.58;2.05;;;22.40;91.00;;;;;;5043695;28;20064;-81
2021/05/16 11:48:41;;;;;;;2.65;2.03;;;22.40;91.00;;;;;;4999995;28;20060;-81
2021/05/16 11:51:14;;;;;;;2.28;1.90;;;22.40;91.00;;;;;;5016099;28;20056;-81
2021/05/16 11:53:41;;;;;;;1.95;1.73;;;22.40;91.00;;;;;;5016749;28;20547;-81
2021/05/16 11:56:15;;;;;;;2.65;2.03;;;22.40;91.00;;;;;;5032590;28;20030;-81
2021/05/16 11:58:54;;;;;;;2.00;1.77;;;22.50;91.00;;;;;;5015138;28;20032;-81
2021/05/16 12:01:22;;;;;;;2.08;1.65;;;22.40;91.20;;;;;;5032704;28;20038;-80
2021/05/16 12:04:05;;;;;;;2.05;1.80;;;22.40;91.00;;;;;;4998274;28;20047;-81
2021/05/16 12:06:54;;;;;;;1.58;1.48;;;22.50;91.00;;;;;;4998505;28;20029;-81
2021/05/16 12:09:25;;;;;;;2.15;1.70;;;22.50;91.00;;;;;;5031332;28;20490;-82
2021/05/16 12:11:52;;;;;;;1.90;1.58;;;22.50;91.00;;;;;;5014770;28;20383;-81
2021/05/16 12:14:20;;;;;;;2.08;1.75;;;22.40;91.00;;;;;;5031489;28;20448;-82
2021/05/16 12:16:53;;;;;;;1.80;1.60;;;22.50;91.00;;;;;;5014370;28;20112;-83
2021/05/16 12:19:29;;;;;;;1.47;1.17;;;22.50;91.00;;;;;;5015225;28;20590;-80
2021/05/16 12:21:56;;;;;;;1.58;1.30;;;22.40;90.90;;;;;;5032461;28;20022;-80
2021/05/16 12:24:29;;;;;;;1.50;1.35;;;22.50;90.90;;;;;;5032940;28;20576;-80
2021/05/16 12:26:55;;;;;;;1.38;1.27;;;22.50;90.90;;;;;;5032775;28;20057;-81
2021/05/16 12:29:21;;;;;;;1.90;1.60;;;22.50;90.90;;;;;;5032402;28;20037;-81
2021/05/16 12:31:48;;;;;;;1.60;1.23;;;22.50;90.90;;;;;;5014616;28;20128;-82
2021/05/16 12:34:16;;;;;;;1.70;1.40;;;22.50;90.90;;;;;;5014416;28;20036;-81
2021/05/16 12:36:48;;;;;;;1.48;1.20;;;22.40;90.90;;;;;;4998425;28;20032;-80
2021/05/16 12:39:14;;;;;;;1.25;1.15;;;22.40;90.90;;;;;;5015026;28;20118;-80
2021/05/16 12:41:39;;;;;;;1.70;1.27;;;22.40;90.90;;;;;;4998622;28;20471;-80